createdAt,value
2023-07-10T00:02:03.525Z,99.90
2023-07-10T00:06:10.508Z,99.90
2023-07-10T00:10:16.884Z,99.90
2023-07-10T00:14:22.662Z,99.90
2023-07-10T00:18:26.252Z,99.90
2023-07-10T00:22:29.584Z,99.90
2023-07-10T00:26:34.196Z,99.90
2023-07-10T00:30:38.827Z,99.90
2023-07-10T00:34:42.047Z,99.90
2023-07-10T00:38:45.314Z,99.90
2023-07-10T00:42:54.876Z,99.90
2023-07-10T00:47:01.675Z,99.90
2023-07-10T00:51:13.894Z,99.90
2023-07-10T00:55:36.723Z,99.90
2023-07-10T00:59:43.231Z,99.90
2023-07-10T01:03:47.738Z,99.90
2023-07-10T01:07:55.575Z,99.90
2023-07-10T01:11:58.769Z,99.90
2023-07-10T01:16:04.337Z,99.90
2023-07-10T01:20:33.186Z,99.90
2023-07-10T01:24:38.004Z,99.90
2023-07-10T01:28:41.412Z,99.90
2023-07-10T01:32:44.903Z,99.90
2023-07-10T01:36:49.505Z,99.90
2023-07-10T01:40:56.751Z,99.90
2023-07-10T01:44:59.944Z,99.90
2023-07-10T01:49:03.699Z,99.90
2023-07-10T01:53:08.071Z,99.90
2023-07-10T01:57:14.765Z,99.90
2023-07-10T02:01:24.112Z,99.90
2023-07-10T02:05:27.416Z,99.90
2023-07-10T02:09:33.222Z,99.90
2023-07-10T02:13:38.006Z,99.90
2023-07-10T02:17:41.282Z,99.90
2023-07-10T02:21:45.649Z,99.90
2023-07-10T02:25:48.828Z,99.90
2023-07-10T02:29:53.472Z,99.90
2023-07-10T02:33:57.323Z,99.90
2023-07-10T02:38:00.528Z,99.90
2023-07-10T02:42:03.721Z,99.90
2023-07-10T02:46:08.578Z,99.90
2023-07-10T02:50:12.471Z,99.90
2023-07-10T02:54:16.299Z,99.90
2023-07-10T02:58:19.558Z,99.90
2023-07-10T03:02:24.316Z,99.90
2023-07-10T03:06:28.648Z,99.90
2023-07-10T03:10:32.010Z,99.90
2023-07-10T03:14:35.295Z,99.90
2023-07-10T03:18:40.872Z,99.90
2023-07-10T03:22:44.205Z,99.90
2023-07-10T03:26:49.298Z,99.90
2023-07-10T03:30:53.861Z,99.90
2023-07-10T03:34:59.635Z,99.90
2023-07-10T03:39:03.410Z,99.90
2023-07-10T03:43:06.747Z,99.90
2023-07-10T03:47:10.024Z,99.90
2023-07-10T03:51:14.660Z,99.90
2023-07-10T03:55:18.084Z,99.90
2023-07-10T03:59:21.782Z,99.90
2023-07-10T04:03:27.107Z,99.90
2023-07-10T04:07:32.038Z,99.90
2023-07-10T04:11:36.304Z,99.90
2023-07-10T04:15:39.766Z,99.90
2023-07-10T04:19:42.923Z,99.90
2023-07-10T04:23:48.448Z,99.90
2023-07-10T04:27:51.965Z,99.90
2023-07-10T04:31:55.276Z,99.90
2023-07-10T04:35:59.655Z,99.90
2023-07-10T04:40:04.475Z,99.90
2023-07-10T04:44:08.214Z,99.90
2023-07-10T04:48:11.849Z,99.90
2023-07-10T04:52:15.081Z,99.90
2023-07-10T04:56:20.965Z,99.90
2023-07-10T05:00:24.593Z,99.90
2023-07-10T05:04:27.980Z,99.90
2023-07-10T05:08:31.828Z,99.90
2023-07-10T05:12:37.158Z,99.90
2023-07-10T05:16:40.588Z,99.90
2023-07-10T05:20:46.712Z,99.90
2023-07-10T05:24:50.079Z,99.90
2023-07-10T05:28:54.669Z,99.90
2023-07-10T05:32:58.161Z,99.90
2023-07-10T05:37:01.575Z,99.90
2023-07-10T05:41:05.835Z,99.90
2023-07-10T05:45:11.604Z,99.90
2023-07-10T05:49:15.068Z,99.90
2023-07-10T05:53:18.859Z,99.90
2023-07-10T05:57:22.198Z,99.90
2023-07-10T06:01:26.863Z,99.90
2023-07-10T06:05:30.246Z,99.90
2023-07-10T06:09:34.520Z,99.90
2023-07-10T06:13:38.516Z,99.90
2023-07-10T06:17:43.177Z,99.90
2023-07-10T06:21:49.200Z,99.90
2023-07-10T06:26:00.611Z,99.90
2023-07-10T06:30:04.530Z,99.90
2023-07-10T06:34:09.233Z,99.90
2023-07-10T06:38:12.672Z,99.90
2023-07-10T06:42:15.833Z,99.90
2023-07-10T06:46:20.200Z,99.90
2023-07-10T06:50:25.302Z,99.90
2023-07-10T06:54:30.352Z,99.90
2023-07-10T06:58:36.153Z,99.90
2023-07-10T07:02:39.623Z,99.90
2023-07-10T07:06:44.544Z,99.90
2023-07-10T07:10:48.652Z,99.90
2023-07-10T07:14:52.165Z,99.90
2023-07-10T07:19:06.490Z,99.90
2023-07-10T07:23:16.108Z,99.90
2023-07-10T07:27:19.546Z,99.90
2023-07-10T07:31:23.247Z,99.90
2023-07-10T07:35:26.649Z,99.90
2023-07-10T07:39:33.219Z,99.90
2023-07-10T07:43:36.530Z,99.90
2023-07-10T07:47:41.954Z,99.90
2023-07-10T07:51:45.675Z,99.90
2023-07-10T07:55:50.832Z,99.90
2023-07-10T07:59:55.597Z,99.90
2023-07-10T08:03:58.982Z,99.90
2023-07-10T08:08:02.480Z,99.90
2023-07-10T08:12:08.412Z,99.90
2023-07-10T08:16:12.285Z,98.90
2023-07-10T08:20:16.043Z,99.90
2023-07-10T08:24:20.582Z,98.20
2023-07-10T08:28:25.785Z,96.90
2023-07-10T08:32:44.289Z,97.00
2023-07-10T08:36:48.119Z,96.50
2023-07-10T08:40:58.705Z,94.40
2023-07-10T08:45:13.080Z,92.80
2023-07-10T08:49:40.349Z,92.00
2023-07-10T08:53:59.423Z,91.00
2023-07-10T08:58:08.869Z,90.20
2023-07-10T09:02:22.583Z,82.30
2023-07-10T09:06:36.855Z,76.50
2023-07-10T09:10:43.078Z,73.70
2023-07-10T09:14:53.063Z,70.90
2023-07-10T09:19:05.884Z,68.90
2023-07-10T09:23:21.994Z,68.00
2023-07-10T09:27:26.300Z,69.00
2023-07-10T09:31:42.081Z,66.10
2023-07-10T09:35:48.882Z,65.50
2023-07-10T09:39:53.217Z,62.30
2023-07-10T09:43:58.415Z,61.00
2023-07-10T09:48:02.009Z,62.90
2023-07-10T09:52:32.557Z,58.60
2023-07-10T09:56:39.703Z,63.50
2023-07-10T10:00:46.292Z,62.80
2023-07-10T10:04:54.748Z,61.00
2023-07-10T10:08:59.524Z,59.40
2023-07-10T10:13:14.404Z,59.00
2023-07-10T10:17:21.108Z,60.60
2023-07-10T10:21:25.776Z,63.80
2023-07-10T10:25:43.751Z,64.10
2023-07-10T10:30:04.184Z,63.50
2023-07-10T10:34:15.712Z,65.20
2023-07-10T10:38:36.796Z,63.10
2023-07-10T10:42:49.533Z,59.20
2023-07-10T10:47:05.139Z,59.10
2023-07-10T10:51:18.654Z,58.70
2023-07-10T10:55:34.530Z,60.00
2023-07-10T10:59:47.853Z,59.00
2023-07-10T11:03:56.188Z,58.40
2023-07-10T11:08:05.515Z,56.00
2023-07-10T11:12:26.319Z,59.30
2023-07-10T11:16:32.921Z,54.00
2023-07-10T11:20:54.841Z,53.20
2023-07-10T11:24:58.658Z,50.70
2023-07-10T11:29:24.194Z,52.40
2023-07-10T11:33:28.890Z,52.80
2023-07-10T11:38:28.829Z,54.20
2023-07-10T11:42:32.051Z,53.80
2023-07-10T11:47:00.923Z,53.60
2023-07-10T11:51:05.783Z,54.30
2023-07-10T11:55:13.768Z,51.10
2023-07-10T11:59:33.078Z,51.50
2023-07-10T12:03:36.968Z,49.00
2023-07-10T12:07:58.049Z,52.50
2023-07-10T12:12:03.210Z,55.20
2023-07-10T12:16:12.707Z,56.60
2023-07-10T12:20:24.222Z,51.90
2023-07-10T12:24:29.186Z,53.50
2023-07-10T12:28:34.951Z,50.60
2023-07-10T12:32:38.957Z,47.20
2023-07-10T12:36:43.775Z,50.40
2023-07-10T12:40:50.360Z,49.20
2023-07-10T12:44:53.674Z,50.50
2023-07-10T12:49:01.582Z,49.40
2023-07-10T12:53:08.097Z,48.30
2023-07-10T12:57:28.464Z,45.70
2023-07-10T13:01:34.489Z,46.70
2023-07-10T13:05:40.592Z,46.80
2023-07-10T13:10:00.529Z,47.10
2023-07-10T13:14:23.359Z,44.10
2023-07-10T13:18:28.554Z,48.00
2023-07-10T13:22:31.986Z,53.90
2023-07-10T13:26:43.846Z,57.50
2023-07-10T13:30:49.179Z,60.30
2023-07-10T13:34:54.658Z,57.10
2023-07-10T13:38:58.439Z,57.90
2023-07-10T13:43:01.935Z,56.20
2023-07-10T13:47:14.589Z,59.00
2023-07-10T13:51:19.722Z,57.90
2023-07-10T13:55:23.031Z,61.00
2023-07-10T14:04:56.524Z,69.30
2023-07-10T14:09:04.388Z,72.80
2023-07-10T14:13:35.909Z,71.90
2023-07-10T14:17:43.447Z,74.80
2023-07-10T14:21:49.327Z,77.60
2023-07-10T14:25:53.576Z,72.80
2023-07-10T14:29:57.906Z,83.10
2023-07-10T14:34:01.188Z,83.50
2023-07-10T14:38:21.096Z,87.90
2023-07-10T14:42:27.492Z,90.10
2023-07-10T14:46:34.929Z,75.70
2023-07-10T14:50:39.579Z,76.60
2023-07-10T14:54:44.152Z,74.10
2023-07-10T14:58:47.315Z,74.40
2023-07-10T15:02:50.746Z,74.80
2023-07-10T15:06:54.204Z,76.00
2023-07-10T15:10:58.969Z,79.30
2023-07-10T15:15:02.799Z,76.80
2023-07-10T15:19:06.064Z,83.80
2023-07-10T15:23:24.594Z,81.70
2023-07-10T15:27:36.512Z,84.20
2023-07-10T15:31:45.152Z,83.80
2023-07-10T15:35:52.458Z,81.90
2023-07-10T15:39:58.035Z,81.50
2023-07-10T15:44:12.909Z,74.10
2023-07-10T15:48:18.203Z,73.50
2023-07-10T15:52:27.238Z,73.20
2023-07-10T15:56:33.203Z,79.70
2023-07-10T16:00:41.881Z,77.90
2023-07-10T16:04:45.050Z,80.60
2023-07-10T16:08:48.429Z,83.80
2023-07-10T16:12:52.670Z,81.00
2023-07-10T16:16:57.407Z,84.20
2023-07-10T16:21:06.315Z,83.10
2023-07-10T16:25:15.982Z,84.10
2023-07-10T16:29:19.223Z,84.10
2023-07-10T16:33:26.120Z,84.00
2023-07-10T16:37:32.190Z,83.80
2023-07-10T16:52:31.483Z,82.60
2023-07-10T16:57:59.175Z,84.90
2023-07-10T17:02:03.837Z,87.70
2023-07-10T17:06:07.107Z,88.50
2023-07-10T17:10:40.954Z,86.80
2023-07-10T17:14:44.211Z,85.60
2023-07-10T17:18:48.854Z,85.40
2023-07-10T17:22:52.250Z,87.00
2023-07-10T17:26:56.991Z,89.60
2023-07-10T17:31:22.722Z,91.80
2023-07-10T17:35:46.951Z,93.80
2023-07-10T17:39:55.560Z,95.20
2023-07-10T17:44:03.591Z,96.60
2023-07-10T17:48:13.128Z,96.60
2023-07-10T17:52:19.214Z,97.70
2023-07-10T17:56:24.600Z,99.90
2023-07-10T18:00:36.480Z,99.90
2023-07-10T18:04:43.645Z,99.90
2023-07-10T18:08:48.628Z,99.90
2023-07-10T18:12:55.502Z,99.90
2023-07-10T18:17:02.870Z,99.90
2023-07-10T18:21:21.213Z,99.90
2023-07-10T18:25:28.198Z,99.90
2023-07-10T18:29:33.778Z,99.90
2023-07-10T18:33:40.773Z,99.90
2023-07-10T18:37:46.165Z,99.90
2023-07-10T18:41:51.830Z,99.90
2023-07-10T18:45:57.957Z,99.90
2023-07-10T18:50:09.534Z,99.90
2023-07-10T18:54:17.309Z,99.90
2023-07-10T18:58:24.967Z,99.90
2023-07-10T19:02:30.522Z,99.90
2023-07-10T19:06:57.905Z,99.90
2023-07-10T19:12:02.198Z,99.90
2023-07-10T19:16:58.086Z,99.90
2023-07-10T19:26:34.643Z,99.90
2023-07-10T19:30:58.147Z,99.90
2023-07-10T19:35:05.360Z,99.90
2023-07-10T19:39:24.707Z,99.90
2023-07-10T19:43:31.162Z,99.90
2023-07-10T19:47:39.755Z,99.90
2023-07-10T19:51:50.233Z,99.90
2023-07-10T19:56:04.562Z,99.90
2023-07-10T20:00:30.695Z,99.90
2023-07-10T20:04:37.472Z,99.90
2023-07-10T20:08:42.052Z,99.90
2023-07-10T20:12:47.565Z,99.90
2023-07-10T20:16:53.670Z,99.90
2023-07-10T20:21:01.167Z,99.90
2023-07-10T20:25:05.444Z,99.90
2023-07-10T20:29:14.875Z,99.90
2023-07-10T20:33:24.233Z,99.90
2023-07-10T20:37:30.490Z,99.90
2023-07-10T20:41:35.872Z,99.90
2023-07-10T20:45:43.167Z,99.90
2023-07-10T20:49:48.548Z,99.90
2023-07-10T20:53:55.668Z,99.90
2023-07-10T20:57:59.794Z,99.90
2023-07-10T21:02:03.750Z,99.90
2023-07-10T21:06:12.252Z,99.90
2023-07-10T21:10:22.316Z,99.90
2023-07-10T21:14:26.706Z,99.90
2023-07-10T21:18:30.655Z,99.90
2023-07-10T21:22:34.849Z,99.90
2023-07-10T21:26:41.420Z,99.90
2023-07-10T21:30:46.278Z,99.90
2023-07-10T21:34:49.889Z,99.90
2023-07-10T21:38:54.480Z,99.90
2023-07-10T21:42:59.241Z,99.90
2023-07-10T21:47:02.673Z,99.90
2023-07-10T21:51:14.126Z,99.90
2023-07-10T21:55:17.499Z,99.90
2023-07-10T21:59:24.516Z,99.90
2023-07-10T22:03:29.958Z,99.90
2023-07-10T22:07:33.256Z,99.90
2023-07-10T22:11:36.530Z,99.90
2023-07-10T22:15:41.492Z,99.90
2023-07-10T22:19:44.736Z,99.90
2023-07-10T22:23:48.450Z,99.90
2023-07-10T22:27:52.246Z,99.90
2023-07-10T22:31:56.955Z,99.90
2023-07-10T22:36:00.817Z,99.90
2023-07-10T22:40:05.465Z,99.90
2023-07-10T22:44:13.307Z,99.90
2023-07-10T22:48:18.009Z,99.90
2023-07-10T22:52:21.214Z,99.90
2023-07-10T22:56:26.884Z,99.90
2023-07-10T23:00:34.241Z,99.90
2023-07-10T23:04:38.805Z,99.90
2023-07-10T23:08:42.217Z,99.90
2023-07-10T23:12:46.005Z,99.90
2023-07-10T23:16:49.222Z,99.90
2023-07-10T23:20:54.384Z,99.90
2023-07-10T23:24:57.553Z,99.90
2023-07-10T23:29:01.516Z,99.90
2023-07-10T23:33:05.166Z,99.90
2023-07-10T23:37:09.913Z,99.90
2023-07-10T23:41:14.464Z,99.90
2023-07-10T23:45:19.572Z,99.90
2023-07-10T23:49:23.175Z,99.90
2023-07-10T23:53:28.170Z,99.90
